Decoded Metar for KBFD (BRADFORD in PA, USA) (IATA:BFD) | Meteo·Mobile Aviation Weather
aviador You're here:

KBFD Decoded Metar

BRADFORD in PA, USA
Report Time2019-03-21 14:53:00
UTC Time2019-03-21 15:42:53
Flight Rules vfr VFR
Wind160° at 06 kt
W.Decomp.*RWY 14: 5.1 kt HW 3.1 kt RCW
RWY 23: 3.1 kt HW 5.1 kt LCW
W.Rank160° ranks 12
Current wind is below 160° avg. (6.7)
Visibility9999 m
Phenomena:N/A
Clouds:Overcast 075 Hf
Expected CloudBase > 2,800 ft AGL from Temp-Dew spread
Ceiling7,500 ft
Temp04°C (ISA -7)
Dew Point-3°C (61% RH)
AAT-0.5°C
QNH1013 hPa
Density Alt1,381 ft
Elevation2,123 ft
Report Wrong Elevation
Raw Report
KBFD 211453Z AUTO 16006KT 10SM OVC075 04/M03 A2992 RMK AO2 SLP142
T00441028 58003=

Extra information for KBFD:More info

Metar Taf Metar & Taf Last 4 Metars F.Rules Stats Wind Profile Meteogram Temp Stats Airport Information Weather charts Add Link Nearby VenuesMetar ALERT Operation Metar Decoded Social comments

AIRNAV info for KBFD